Time;durP1;ratioP1;P1;durP2;ratioP2;P2;SDS_P1;SDS_P2;PMS_P1;PMS_P2;Temp;Humidity;BMP_temperature;BMP_pressure;BME280_temperature;BME280_humidity;BME280_pressure;Samples;Min_cycle;Max_cycle;Signal;HPM_P1;HPM_P2
2022/06/06 00:01:46;;;;;;;17.37;16.57;;;15.90;90.40;;;;;;5054368;28;20828;-85
2022/06/06 00:04:13;;;;;;;16.40;15.70;;;15.90;92.60;;;;;;5051239;28;20910;-84
2022/06/06 00:06:41;;;;;;;17.60;16.50;;;15.90;92.80;;;;;;5050277;28;20462;-85
2022/06/06 00:09:08;;;;;;;15.43;14.83;;;15.90;95.90;;;;;;5052973;28;20479;-84
2022/06/06 00:11:34;;;;;;;15.73;15.13;;;15.80;95.40;;;;;;5053091;28;20426;-84
2022/06/06 00:14:00;;;;;;;16.77;15.87;;;15.80;94.90;;;;;;5051449;28;20419;-84
2022/06/06 00:16:26;;;;;;;16.47;15.73;;;15.80;92.80;;;;;;5049972;28;20437;-84
2022/06/06 00:18:52;;;;;;;15.73;15.10;;;15.80;93.80;;;;;;5051614;28;20419;-84
2022/06/06 00:21:18;;;;;;;15.83;15.13;;;15.80;94.50;;;;;;5052421;28;20184;-85
2022/06/06 00:23:43;;;;;;;15.70;15.10;;;15.80;94.40;;;;;;5052607;28;21265;-84
2022/06/06 00:26:12;;;;;;;16.10;15.40;;;15.80;93.90;;;;;;5051400;28;20220;-85
2022/06/06 00:28:40;;;;;;;15.97;15.10;;;15.80;93.70;;;;;;5051348;28;20617;-85
2022/06/06 00:36:36;;;;;;;16.57;15.87;;;15.80;90.50;;;;;;5052630;28;20418;-84
2022/06/06 00:39:04;;;;;;;17.13;16.07;;;15.80;89.60;;;;;;5050176;28;20907;-84
2022/06/06 00:41:30;;;;;;;16.60;15.90;;;15.80;90.10;;;;;;5051423;28;20422;-84
2022/06/06 00:44:10;;;;;;;17.60;16.50;;;15.70;90.40;;;;;;5051288;28;21057;-85
2022/06/06 00:46:52;;;;;;;17.73;16.83;;;15.80;90.90;;;;;;5050278;28;20218;-84
2022/06/06 00:49:26;;;;;;;17.20;16.30;;;15.80;92.50;;;;;;5051319;28;20421;-85
2022/06/06 00:51:54;;;;;;;15.73;15.03;;;15.80;93.70;;;;;;5049683;28;20483;-85
2022/06/06 00:54:22;;;;;;;16.40;15.40;;;15.80;94.90;;;;;;5052086;28;20788;-85
2022/06/06 00:56:52;;;;;;;15.47;14.87;;;15.70;96.00;;;;;;5050028;28;20543;-85
2022/06/06 00:59:22;;;;;;;15.07;14.57;;;15.70;95.80;;;;;;5050621;28;20838;-85
2022/06/06 01:01:49;;;;;;;15.23;14.50;;;15.80;96.40;;;;;;5048539;28;20544;-85
2022/06/06 01:04:18;;;;;;;15.97;15.30;;;15.70;94.60;;;;;;5051069;28;20410;-85
2022/06/06 01:06:45;;;;;;;16.53;15.53;;;15.70;93.70;;;;;;5050030;28;20541;-85
2022/06/06 01:09:12;;;;;;;15.67;14.97;;;15.70;91.50;;;;;;5051493;28;20421;-85
2022/06/06 01:11:42;;;;;;;16.27;15.50;;;15.70;91.20;;;;;;5049375;28;20418;-85
2022/06/06 01:14:11;;;;;;;17.30;16.50;;;15.70;90.70;;;;;;5050339;28;20818;-85
2022/06/06 01:16:47;;;;;;;17.07;16.27;;;15.70;90.40;;;;;;5049032;28;20442;-85
2022/06/06 01:19:41;;;;;;;17.40;16.70;;;15.70;89.00;;;;;;5048662;28;20414;-84
2022/06/06 01:22:22;;;;;;;17.30;16.53;;;15.70;89.70;;;;;;5051901;28;20422;-84
2022/06/06 01:25:00;;;;;;;17.10;16.40;;;15.70;88.70;;;;;;5051280;28;20421;-83
2022/06/06 01:27:37;;;;;;;17.53;16.73;;;15.70;90.60;;;;;;5051547;28;20508;-84
2022/06/06 01:30:12;;;;;;;16.47;15.87;;;15.70;91.70;;;;;;5051911;28;20442;-85
2022/06/06 01:32:44;;;;;;;17.83;17.07;;;15.60;90.40;;;;;;5051642;28;20611;-84
2022/06/06 01:35:11;;;;;;;17.67;16.83;;;15.70;89.60;;;;;;5050716;28;20472;-84
2022/06/06 01:37:42;;;;;;;17.13;16.27;;;15.60;88.00;;;;;;5051608;28;20422;-85
2022/06/06 01:40:16;;;;;;;17.83;17.07;;;15.70;87.10;;;;;;5051169;28;20458;-84
2022/06/06 01:42:58;;;;;;;16.33;15.70;;;15.70;87.00;;;;;;5050921;28;20423;-84
2022/06/06 01:45:35;;;;;;;17.20;16.10;;;15.70;89.60;;;;;;5049158;28;20422;-84
2022/06/06 01:48:23;;;;;;;16.03;15.33;;;15.60;87.10;;;;;;5050123;28;20466;-84
2022/06/06 01:50:50;;;;;;;16.90;16.20;;;15.60;86.40;;;;;;5050785;28;20422;-84
2022/06/06 01:53:22;;;;;;;16.43;15.73;;;15.60;87.30;;;;;;5051268;28;20423;-84
2022/06/06 01:55:50;;;;;;;17.43;16.73;;;15.60;85.30;;;;;;5050668;28;20410;-84
2022/06/06 01:58:29;;;;;;;18.10;17.20;;;15.60;86.10;;;;;;5051696;28;20533;-84
2022/06/06 02:00:55;;;;;;;18.47;16.83;;;15.60;86.40;;;;;;5051209;28;20414;-84
2022/06/06 02:03:21;;;;;;;17.30;16.50;;;15.60;90.50;;;;;;5049117;28;20422;-84
2022/06/06 02:05:46;;;;;;;16.60;15.90;;;15.60;86.90;;;;;;5051273;28;20191;-84
2022/06/06 02:08:14;;;;;;;16.70;16.00;;;15.60;85.30;;;;;;5049869;28;20832;-84
2022/06/06 02:10:40;;;;;;;16.83;15.50;;;15.60;86.40;;;;;;5050422;28;20258;-84
2022/06/06 02:13:06;;;;;;;16.50;15.73;;;15.60;84.80;;;;;;5048436;28;20422;-84
2022/06/06 02:15:32;;;;;;;15.17;14.50;;;15.60;86.50;;;;;;5050732;28;20972;-84
2022/06/06 02:17:58;;;;;;;15.83;15.13;;;15.60;91.40;;;;;;5050067;28;20430;-84
2022/06/06 02:20:27;;;;;;;15.57;14.70;;;15.60;88.50;;;;;;5050942;28;20761;-84
2022/06/06 02:22:53;;;;;;;16.20;15.40;;;15.70;90.60;;;;;;5048201;28;20465;-84
2022/06/06 02:25:20;;;;;;;15.60;15.00;;;15.70;89.10;;;;;;5049926;28;20438;-84
2022/06/06 02:27:46;;;;;;;15.87;14.97;;;15.70;90.50;;;;;;5049369;28;20876;-84
2022/06/06 02:30:17;;;;;;;15.43;14.57;;;15.70;92.40;;;;;;5033042;28;20529;-84
2022/06/06 02:32:43;;;;;;;15.70;14.70;;;15.60;93.50;;;;;;5048848;28;20407;-83
2022/06/06 02:35:13;;;;;;;16.23;15.27;;;15.50;93.10;;;;;;5050614;28;20423;-84
2022/06/06 02:38:13;;;;;;;15.80;15.10;;;15.60;94.10;;;;;;5051052;28;20422;-87
2022/06/06 02:40:41;;;;;;;15.57;14.87;;;15.50;93.10;;;;;;5052441;28;20422;-84
2022/06/06 02:43:17;;;;;;;14.97;14.37;;;15.50;92.40;;;;;;5051088;28;20429;-87
2022/06/06 02:45:47;;;;;;;15.20;14.60;;;15.60;91.00;;;;;;5050409;28;20441;-87
2022/06/06 02:48:13;;;;;;;15.00;14.10;;;15.60;91.90;;;;;;5050807;28;20477;-87
2022/06/06 02:50:39;;;;;;;15.53;14.53;;;15.60;91.20;;;;;;5050923;28;20422;-87
2022/06/06 02:53:05;;;;;;;16.03;15.27;;;15.60;90.00;;;;;;5051092;28;20415;-87
2022/06/06 02:55:32;;;;;;;15.30;14.60;;;15.60;86.40;;;;;;5050877;28;20440;-87
2022/06/06 02:57:59;;;;;;;16.50;15.80;;;15.60;87.40;;;;;;5051415;28;20418;-87
2022/06/06 03:00:27;;;;;;;15.50;14.80;;;15.60;85.20;;;;;;5050906;28;20452;-87
2022/06/06 03:02:54;;;;;;;15.80;15.00;;;15.60;85.90;;;;;;5050987;28;20419;-87
2022/06/06 03:05:20;;;;;;;15.30;14.60;;;15.60;86.50;;;;;;5049106;28;20422;-87
2022/06/06 03:07:55;;;;;;;15.97;15.33;;;15.60;87.60;;;;;;5050890;28;20554;-87
2022/06/06 03:10:33;;;;;;;14.73;14.10;;;15.50;90.70;;;;;;5050051;28;20428;-87
2022/06/06 03:13:04;;;;;;;15.00;14.40;;;15.50;87.50;;;;;;5049648;28;20513;-88
2022/06/06 03:22:15;;;;;;;15.67;14.97;;;15.50;90.30;;;;;;5040488;28;20457;-87
2022/06/06 03:24:47;;;;;;;15.13;14.43;;;15.50;91.80;;;;;;5053554;28;20979;-87
2022/06/06 03:27:37;;;;;;;14.73;13.93;;;15.50;91.50;;;;;;5053573;28;20465;-87
2022/06/06 03:30:10;;;;;;;14.60;13.90;;;15.50;91.00;;;;;;5052636;28;20414;-87
2022/06/06 03:32:39;;;;;;;14.57;13.97;;;15.50;89.20;;;;;;5053718;28;20436;-87
2022/06/06 03:35:20;;;;;;;16.20;15.50;;;15.60;88.40;;;;;;5054057;28;20422;-88
2022/06/06 03:37:54;;;;;;;16.50;15.70;;;15.50;84.10;;;;;;5054711;28;20775;-88
2022/06/06 03:40:36;;;;;;;15.50;14.73;;;15.50;84.60;;;;;;5053289;28;20430;-87
2022/06/06 03:43:19;;;;;;;15.10;14.50;;;15.50;83.30;;;;;;5053440;28;20800;-87
2022/06/06 03:46:17;;;;;;;17.40;16.30;;;15.50;85.10;;;;;;5053268;28;20434;-87
2022/06/06 03:49:13;;;;;;;16.50;15.80;;;15.50;84.50;;;;;;5054190;28;20922;-87
2022/06/06 03:52:10;;;;;;;16.90;16.10;;;15.50;83.20;;;;;;5049182;28;20410;-87
2022/06/06 03:54:53;;;;;;;15.60;14.90;;;15.50;84.40;;;;;;5053788;28;20505;-87
2022/06/06 03:57:24;;;;;;;15.87;15.17;;;15.50;86.00;;;;;;5053149;28;20421;-87
2022/06/06 03:59:56;;;;;;;14.43;13.83;;;15.50;89.40;;;;;;5053832;28;20421;-88
2022/06/06 04:02:28;;;;;;;15.00;14.33;;;15.40;90.40;;;;;;5053013;28;20426;-87
2022/06/06 04:04:59;;;;;;;15.50;14.50;;;15.40;91.50;;;;;;5051863;28;20929;-87
2022/06/06 04:07:24;;;;;;;15.00;14.30;;;15.50;89.70;;;;;;5052529;28;20543;-88
2022/06/06 04:09:52;;;;;;;14.97;14.37;;;15.50;87.00;;;;;;5052418;28;20449;-87
2022/06/06 04:12:40;;;;;;;16.53;15.73;;;15.50;88.10;;;;;;5052182;28;20199;-88
2022/06/06 04:15:24;;;;;;;16.13;15.00;;;15.60;89.60;;;;;;5052359;28;20497;-87
2022/06/06 04:18:08;;;;;;;16.47;15.77;;;15.60;88.60;;;;;;5052845;28;20410;-88
2022/06/06 04:20:58;;;;;;;15.87;15.07;;;15.60;86.50;;;;;;5053238;28;20415;-88
2022/06/06 04:23:36;;;;;;;15.60;15.00;;;15.60;86.40;;;;;;5052647;28;20426;-87
2022/06/06 04:26:24;;;;;;;15.13;14.53;;;15.70;86.60;;;;;;5052593;28;20438;-88
2022/06/06 04:29:08;;;;;;;16.03;15.23;;;15.70;85.10;;;;;;5051044;28;20797;-87
2022/06/06 04:32:24;;;;;;;16.20;15.50;;;15.70;85.50;;;;;;5052213;28;20410;-87
2022/06/06 04:35:44;;;;;;;16.17;15.30;;;15.80;85.10;;;;;;5052148;28;20513;-88
2022/06/06 04:38:15;;;;;;;16.53;15.63;;;15.80;89.80;;;;;;5035306;28;20419;-88
2022/06/06 04:41:17;;;;;;;15.37;14.50;;;15.80;90.00;;;;;;5051027;28;20476;-88
2022/06/06 04:43:51;;;;;;;14.23;13.47;;;15.70;91.60;;;;;;5052166;28;20414;-87
2022/06/06 04:46:35;;;;;;;14.87;13.80;;;15.80;91.90;;;;;;5052702;28;20411;-87
2022/06/06 04:49:01;;;;;;;15.87;15.00;;;15.80;90.90;;;;;;5052031;28;20411;-87
2022/06/06 04:51:28;;;;;;;14.87;14.20;;;15.80;91.30;;;;;;5052738;28;20464;-87
2022/06/06 04:53:56;;;;;;;17.13;16.20;;;15.80;91.10;;;;;;5052510;28;20421;-87
2022/06/06 04:56:24;;;;;;;16.07;15.10;;;15.90;90.20;;;;;;5052327;28;20419;-87
2022/06/06 04:58:52;;;;;;;17.50;15.77;;;16.00;92.90;;;;;;5052301;28;20414;-88
2022/06/06 05:01:18;;;;;;;14.93;14.33;;;15.90;92.80;;;;;;5052193;28;20415;-87
2022/06/06 05:03:44;;;;;;;15.33;14.50;;;15.90;93.50;;;;;;5052635;28;20417;-88
2022/06/06 05:06:34;;;;;;;15.80;15.10;;;15.90;92.10;;;;;;5052045;28;20501;-87
2022/06/06 05:09:09;;;;;;;18.80;17.40;;;15.90;88.90;;;;;;5052479;28;20422;-87
2022/06/06 05:11:46;;;;;;;16.97;15.87;;;16.00;91.50;;;;;;5052341;28;20777;-87
2022/06/06 05:14:26;;;;;;;16.87;16.07;;;16.00;92.60;;;;;;5052372;28;20418;-87
2022/06/06 05:17:10;;;;;;;16.80;16.10;;;16.00;91.50;;;;;;5051649;28;20414;-87
2022/06/06 05:19:36;;;;;;;17.85;17.05;;;16.10;90.90;;;;;;5051200;28;20451;-88
2022/06/06 05:22:23;;;;;;;16.50;15.80;;;16.10;92.90;;;;;;5051905;28;20646;-88
2022/06/06 05:24:52;;;;;;;17.07;16.23;;;16.10;92.70;;;;;;5052313;28;20172;-87
2022/06/06 05:27:54;;;;;;;17.30;16.40;;;16.20;93.40;;;;;;5051387;28;20450;-87
2022/06/06 05:30:31;;;;;;;16.53;15.60;;;16.20;93.60;;;;;;5051730;28;20448;-88
2022/06/06 05:33:00;;;;;;;17.07;16.27;;;16.20;89.60;;;;;;5051365;28;20406;-87
2022/06/06 05:35:37;;;;;;;18.17;17.17;;;16.30;86.60;;;;;;5051538;28;20777;-87
2022/06/06 05:38:15;;;;;;;17.40;16.67;;;16.30;91.40;;;;;;5052097;28;20500;-88
2022/06/06 05:40:55;;;;;;;16.93;16.23;;;16.30;92.50;;;;;;5051364;28;20418;-88
2022/06/06 05:43:23;;;;;;;16.37;15.67;;;16.30;92.60;;;;;;5049788;28;20938;-84
2022/06/06 05:46:07;;;;;;;16.60;15.90;;;16.30;93.00;;;;;;5049996;28;20448;-85
2022/06/06 05:48:53;;;;;;;16.47;15.67;;;16.40;93.00;;;;;;5050783;28;20773;-84
2022/06/06 05:51:19;;;;;;;15.27;14.57;;;16.40;93.10;;;;;;5050669;28;20922;-84
2022/06/06 05:54:03;;;;;;;16.00;15.30;;;16.40;93.20;;;;;;5050632;28;20442;-84
2022/06/06 05:56:51;;;;;;;15.23;14.57;;;16.50;92.90;;;;;;5050262;28;20543;-84
2022/06/06 05:59:19;;;;;;;15.17;14.50;;;16.60;92.80;;;;;;5051335;28;20414;-84
2022/06/06 06:02:25;;;;;;;16.60;15.70;;;16.60;88.10;;;;;;5050267;28;20969;-83
2022/06/06 06:05:19;;;;;;;15.87;15.20;;;16.70;90.10;;;;;;5051855;28;20564;-84
2022/06/06 06:08:16;;;;;;;17.10;16.40;;;16.70;87.50;;;;;;5049124;28;20463;-85
2022/06/06 06:11:23;;;;;;;17.53;16.73;;;16.80;87.60;;;;;;5050537;28;20795;-83
2022/06/06 06:13:58;;;;;;;18.67;17.67;;;16.90;87.80;;;;;;5060973;28;20418;-83
2022/06/06 06:16:28;;;;;;;17.63;16.77;;;17.00;87.90;;;;;;5047097;28;20777;-84
2022/06/06 06:19:06;;;;;;;19.67;18.57;;;16.90;87.70;;;;;;5067515;28;20425;-83
2022/06/06 06:22:06;;;;;;;18.33;17.47;;;17.00;85.40;;;;;;5065927;28;20402;-84
2022/06/06 06:24:36;;;;;;;18.37;17.27;;;17.00;86.10;;;;;;5046109;28;20417;-84
2022/06/06 06:27:03;;;;;;;18.10;17.20;;;17.10;85.30;;;;;;5066110;28;20830;-84
2022/06/06 06:29:29;;;;;;;20.07;18.73;;;17.10;83.70;;;;;;5065058;28;20413;-84
2022/06/06 06:32:26;;;;;;;17.77;16.97;;;17.20;82.80;;;;;;5049557;28;20762;-84
2022/06/06 06:35:00;;;;;;;19.13;17.53;;;17.20;89.00;;;;;;5050850;28;20176;-85
2022/06/06 06:37:32;;;;;;;17.23;16.50;;;17.20;88.00;;;;;;5049347;28;20421;-83
2022/06/06 06:40:05;;;;;;;18.33;17.53;;;17.20;85.10;;;;;;5050859;28;20421;-84
2022/06/06 06:43:10;;;;;;;19.53;18.40;;;17.30;84.70;;;;;;5050268;28;20410;-84
2022/06/06 06:45:56;;;;;;;18.90;17.90;;;17.30;87.00;;;;;;5044401;28;20422;-85
2022/06/06 06:48:29;;;;;;;19.83;18.93;;;17.40;88.20;;;;;;5050610;28;20537;-84
2022/06/06 06:51:17;;;;;;;20.60;19.60;;;17.40;86.30;;;;;;5051790;28;20398;-85
2022/06/06 06:54:23;;;;;;;18.90;17.90;;;17.50;81.60;;;;;;5028929;28;20422;-84
2022/06/06 06:57:04;;;;;;;19.37;18.57;;;17.60;82.40;;;;;;5053671;28;20832;-85
2022/06/06 06:59:50;;;;;;;20.47;19.47;;;17.70;78.20;;;;;;5053527;28;20414;-85
2022/06/06 07:08:42;;;;;;;22.30;21.30;;;17.80;75.70;;;;;;5055622;28;20444;-85
2022/06/06 07:11:40;;;;;;;23.00;21.90;;;17.90;78.80;;;;;;5053032;28;20403;-85
2022/06/06 07:14:39;;;;;;;24.10;23.00;;;17.90;76.60;;;;;;5053372;28;20203;-85
2022/06/06 07:17:08;;;;;;;23.57;22.30;;;18.00;75.10;;;;;;5040690;28;20559;-85
2022/06/06 07:19:45;;;;;;;23.40;22.10;;;18.00;72.50;;;;;;5054940;28;20417;-85
2022/06/06 07:22:11;;;;;;;22.50;21.50;;;18.00;78.90;;;;;;5054151;28;20762;-85
2022/06/06 07:24:38;;;;;;;21.33;20.33;;;18.00;79.50;;;;;;5054766;28;20857;-85
2022/06/06 07:27:07;;;;;;;21.57;20.47;;;18.00;79.80;;;;;;5055262;28;20450;-85
2022/06/06 07:29:33;;;;;;;22.20;21.27;;;18.10;82.00;;;;;;5055444;28;20414;-85
2022/06/06 07:32:14;;;;;;;21.97;21.00;;;18.00;79.80;;;;;;5056551;28;20472;-86
2022/06/06 07:34:58;;;;;;;24.00;22.80;;;18.00;75.20;;;;;;5056096;28;21008;-87
2022/06/06 07:37:36;;;;;;;23.90;22.67;;;18.10;73.40;;;;;;5053677;28;20430;-88
2022/06/06 07:40:02;;;;;;;24.47;23.17;;;18.20;69.70;;;;;;5054090;28;20560;-89
2022/06/06 07:42:52;;;;;;;22.53;21.47;;;18.20;71.00;;;;;;5054114;28;20501;-87
2022/06/06 07:45:31;;;;;;;24.80;23.50;;;18.20;69.00;;;;;;5054094;28;20229;-89
2022/06/06 07:48:20;;;;;;;24.73;23.53;;;18.30;67.30;;;;;;5054633;28;20500;-87
2022/06/06 07:50:49;;;;;;;24.30;23.10;;;18.30;71.10;;;;;;5053413;28;20411;-88
2022/06/06 07:53:27;;;;;;;24.53;23.30;;;18.40;65.10;;;;;;5053370;28;20444;-87
2022/06/06 07:56:04;;;;;;;24.67;23.40;;;18.40;64.90;;;;;;5053668;28;20417;-87
2022/06/06 07:58:57;;;;;;;25.93;24.70;;;18.50;67.70;;;;;;5053586;28;20418;-88
2022/06/06 08:01:45;;;;;;;26.33;24.83;;;18.50;65.00;;;;;;5053562;28;20419;-88
2022/06/06 08:04:36;;;;;;;24.30;22.60;;;18.60;65.40;;;;;;5053180;28;20446;-88
2022/06/06 08:07:32;;;;;;;25.60;24.20;;;18.60;63.10;;;;;;5051484;28;20523;-88
2022/06/06 08:10:16;;;;;;;25.53;23.97;;;18.60;66.20;;;;;;5053097;28;20499;-88
2022/06/06 08:13:12;;;;;;;24.70;23.50;;;18.70;66.40;;;;;;5051235;28;20419;-87
2022/06/06 08:15:49;;;;;;;24.87;23.67;;;18.70;66.30;;;;;;5052944;28;20565;-83
2022/06/06 08:18:43;;;;;;;27.90;26.40;;;18.90;59.00;;;;;;5053128;28;20509;-85
2022/06/06 08:21:36;;;;;;;27.33;25.80;;;19.10;60.00;;;;;;5051902;28;20415;-87
2022/06/06 08:24:06;;;;;;;29.50;28.00;;;19.10;60.30;;;;;;5052787;28;20421;-88
2022/06/06 08:26:38;;;;;;;31.60;30.00;;;19.30;58.80;;;;;;5051805;28;20552;-87
2022/06/06 08:29:09;;;;;;;31.20;29.10;;;19.40;58.40;;;;;;5052561;28;20414;-87
2022/06/06 08:31:35;;;;;;;29.83;28.23;;;19.40;56.40;;;;;;5052814;28;20446;-87
2022/06/06 08:34:01;;;;;;;29.67;28.10;;;19.30;56.40;;;;;;5052486;28;20425;-87
2022/06/06 08:37:05;;;;;;;31.90;30.30;;;19.40;56.30;;;;;;5053495;28;20403;-87
2022/06/06 08:39:40;;;;;;;32.50;30.90;;;19.40;56.40;;;;;;5052731;28;20309;-87
2022/06/06 08:42:05;;;;;;;34.00;32.30;;;19.40;56.70;;;;;;5052747;28;20508;-86
2022/06/06 08:44:46;;;;;;;35.00;33.30;;;19.50;51.50;;;;;;5052974;28;20544;-86
2022/06/06 08:47:43;;;;;;;36.58;34.78;;;19.70;48.80;;;;;;5052048;28;20440;-86
2022/06/06 08:50:46;;;;;;;32.73;30.77;;;19.70;51.30;;;;;;5052865;28;20267;-86
2022/06/06 08:53:39;;;;;;;36.33;34.53;;;19.60;49.40;;;;;;5052496;28;20410;-86
2022/06/06 08:56:05;;;;;;;37.73;35.83;;;19.90;46.70;;;;;;5052411;28;20413;-86
2022/06/06 08:59:08;;;;;;;39.00;36.37;;;20.00;47.90;;;;;;5052911;28;20411;-86
2022/06/06 09:02:07;;;;;;;36.33;33.83;;;20.10;45.90;;;;;;5054573;28;20183;-86
2022/06/06 09:05:03;;;;;;;33.50;31.80;;;20.00;48.90;;;;;;5052630;28;20421;-86
2022/06/06 09:07:49;;;;;;;35.90;34.00;;;20.00;50.40;;;;;;5052587;28;20515;-86
2022/06/06 09:10:21;;;;;;;37.10;35.20;;;20.20;47.00;;;;;;5066292;28;20506;-86
2022/06/06 09:13:05;;;;;;;38.10;36.30;;;20.30;44.40;;;;;;5051279;28;20418;-86
2022/06/06 09:15:40;;;;;;;38.00;36.10;;;20.40;45.70;;;;;;5050949;28;20410;-85
2022/06/06 09:18:39;;;;;;;37.77;35.97;;;20.40;46.80;;;;;;5051447;28;20500;-86
2022/06/06 09:21:04;;;;;;;40.80;38.60;;;20.70;39.90;;;;;;5050414;28;20414;-89
2022/06/06 09:23:48;;;;;;;41.27;39.27;;;20.80;42.00;;;;;;5052330;28;21072;-90
2022/06/06 09:26:38;;;;;;;38.90;37.10;;;20.70;44.70;;;;;;5051839;28;20567;-88
2022/06/06 09:29:11;;;;;;;40.27;38.37;;;20.50;40.70;;;;;;5052286;28;20441;-87
2022/06/06 09:31:55;;;;;;;39.37;37.43;;;20.70;42.70;;;;;;5051609;28;20426;-86
2022/06/06 09:34:36;;;;;;;39.40;37.60;;;20.60;43.00;;;;;;5052143;28;20410;-88
2022/06/06 09:37:20;;;;;;;39.70;37.80;;;20.60;44.90;;;;;;5051300;28;20425;-88
2022/06/06 09:40:13;;;;;;;38.53;36.50;;;20.70;43.40;;;;;;5051604;28;20422;-87
2022/06/06 09:42:47;;;;;;;41.17;39.27;;;20.80;41.70;;;;;;5050586;28;20938;-88
2022/06/06 09:45:38;;;;;;;39.17;37.17;;;20.70;43.90;;;;;;5051252;28;20425;-85
2022/06/06 09:48:42;;;;;;;37.87;36.13;;;20.60;43.00;;;;;;5051134;28;20970;-88
2022/06/06 09:51:26;;;;;;;37.90;36.20;;;20.60;40.80;;;;;;5051535;28;20418;-89
2022/06/06 10:00:30;;;;;;;34.63;33.13;;;20.90;40.20;;;;;;5052396;28;20405;-88
2022/06/06 10:03:21;;;;;;;34.90;33.20;;;20.90;39.60;;;;;;5046126;28;20526;-88
2022/06/06 10:06:14;;;;;;;33.50;32.00;;;21.20;37.50;;;;;;5047001;28;20415;-88
2022/06/06 10:09:08;;;;;;;32.70;31.30;;;21.30;39.60;;;;;;5047597;28;20423;-89
2022/06/06 10:11:55;;;;;;;34.13;32.63;;;21.20;37.40;;;;;;5046838;28;20414;-87
2022/06/06 10:14:42;;;;;;;32.13;30.63;;;21.00;36.60;;;;;;5047399;28;20412;-88
2022/06/06 10:17:17;;;;;;;33.17;31.70;;;21.00;33.70;;;;;;5047397;28;20426;-88
2022/06/06 10:20:02;;;;;;;33.60;32.10;;;21.10;36.90;;;;;;5045926;28;20476;-88
2022/06/06 10:22:57;;;;;;;33.27;31.77;;;21.10;35.30;;;;;;5047333;28;20447;-87
2022/06/06 10:25:44;;;;;;;31.30;29.90;;;21.20;36.20;;;;;;5031931;28;20510;-86
2022/06/06 10:28:25;;;;;;;32.20;30.80;;;21.30;37.30;;;;;;5047305;28;20459;-86
2022/06/06 10:31:09;;;;;;;32.40;31.00;;;21.10;36.50;;;;;;5047031;28;20415;-87
2022/06/06 10:33:50;;;;;;;31.50;30.10;;;21.10;38.70;;;;;;5047540;28;20403;-88
2022/06/06 10:36:40;;;;;;;31.30;29.90;;;21.20;38.70;;;;;;5046782;28;20409;-87
2022/06/06 10:39:37;;;;;;;34.23;32.63;;;21.50;37.10;;;;;;5046981;28;20169;-88
2022/06/06 10:42:24;;;;;;;32.13;30.73;;;21.40;36.90;;;;;;5047302;28;20774;-88
2022/06/06 10:45:16;;;;;;;30.50;29.10;;;21.30;37.60;;;;;;5047390;28;20413;-87
2022/06/06 10:48:19;;;;;;;29.00;27.70;;;21.30;37.90;;;;;;5030098;28;20467;-87
2022/06/06 10:53:58;;;;;;;31.80;30.40;;;21.40;37.60;;;;;;5031417;28;20445;-87
2022/06/06 10:56:55;;;;;;;30.97;29.67;;;21.30;39.10;;;;;;5031527;28;20411;-88
2022/06/06 11:00:05;;;;;;;31.70;30.10;;;21.20;38.70;;;;;;5047176;28;20911;-87
2022/06/06 11:02:51;;;;;;;28.40;27.20;;;21.10;39.80;;;;;;5031790;28;20925;-89
2022/06/06 11:05:20;;;;;;;28.93;27.60;;;21.20;37.20;;;;;;5046838;28;20561;-89
2022/06/06 11:08:15;;;;;;;27.17;25.90;;;21.20;33.80;;;;;;5046647;28;20544;-87
2022/06/06 11:11:06;;;;;;;26.60;25.50;;;21.40;33.50;;;;;;5012128;28;20849;-90
2022/06/06 11:13:43;;;;;;;25.80;24.43;;;21.50;32.30;;;;;;5047026;28;20418;-89
2022/06/06 11:16:17;;;;;;;25.80;24.70;;;21.40;33.70;;;;;;5047035;28;20465;-89
2022/06/06 11:18:52;;;;;;;25.70;24.60;;;21.50;33.60;;;;;;5047183;28;20411;-88
2022/06/06 11:21:55;;;;;;;26.30;25.20;;;21.50;36.50;;;;;;5046974;28;20498;-89
2022/06/06 11:25:12;;;;;;;25.37;24.27;;;21.50;35.70;;;;;;5047066;28;20403;-88
2022/06/06 11:28:19;;;;;;;25.90;24.50;;;21.50;35.60;;;;;;5028503;28;20553;-88
2022/06/06 11:31:09;;;;;;;25.17;24.10;;;21.60;33.30;;;;;;5049384;28;20840;-90
2022/06/06 11:34:00;;;;;;;25.87;24.87;;;21.80;34.40;;;;;;5049099;28;20403;-88
2022/06/06 11:36:54;;;;;;;26.00;25.00;;;21.70;34.50;;;;;;5046352;28;20817;-89
2022/06/06 11:39:28;;;;;;;25.90;24.47;;;21.60;35.10;;;;;;5049826;28;20425;-88
2022/06/06 11:42:24;;;;;;;25.10;24.10;;;21.50;35.40;;;;;;5051459;28;20405;-88
2022/06/06 11:45:00;;;;;;;26.27;25.17;;;21.60;31.30;;;;;;5047834;28;20426;-88
2022/06/06 11:47:44;;;;;;;25.87;24.77;;;21.70;34.70;;;;;;5052080;28;20464;-81
2022/06/06 11:50:59;;;;;;;26.43;25.33;;;21.60;35.00;;;;;;5055661;28;20569;-89
2022/06/06 11:54:02;;;;;;;25.87;24.77;;;21.60;33.70;;;;;;5026398;28;20403;-88
2022/06/06 11:56:39;;;;;;;25.43;24.33;;;21.70;33.90;;;;;;5032020;28;20752;-88
2022/06/06 11:59:31;;;;;;;26.10;24.70;;;21.60;34.50;;;;;;5032339;28;20424;-84
2022/06/06 12:02:20;;;;;;;26.90;25.80;;;21.60;38.50;;;;;;5033237;28;20238;-84
2022/06/06 12:05:08;;;;;;;26.30;25.10;;;21.60;35.60;;;;;;5033349;28;20503;-84
2022/06/06 12:07:43;;;;;;;25.77;24.67;;;21.60;35.10;;;;;;5032748;28;20508;-84
2022/06/06 12:10:25;;;;;;;25.00;24.00;;;21.70;33.10;;;;;;5033580;28;20498;-84
2022/06/06 12:12:56;;;;;;;25.57;24.57;;;21.80;33.50;;;;;;5033629;28;20515;-84
2022/06/06 12:15:41;;;;;;;25.50;24.40;;;21.70;30.50;;;;;;5033469;28;20435;-84
2022/06/06 12:18:27;;;;;;;25.57;24.27;;;21.60;34.60;;;;;;5033814;28;20835;-84
2022/06/06 12:21:23;;;;;;;25.63;24.40;;;21.50;35.00;;;;;;5033691;28;20760;-87
2022/06/06 12:24:17;;;;;;;25.07;24.00;;;21.50;33.50;;;;;;5033770;28;20422;-84
2022/06/06 12:27:01;;;;;;;23.90;22.77;;;21.50;34.80;;;;;;5033532;28;21097;-88
2022/06/06 12:29:39;;;;;;;23.87;22.87;;;21.40;34.90;;;;;;5033306;28;20546;-88
2022/06/06 12:32:49;;;;;;;24.50;23.60;;;21.40;33.90;;;;;;5033384;28;20933;-88
2022/06/06 12:35:32;;;;;;;25.40;24.33;;;21.40;34.50;;;;;;4995357;28;20417;-88
2022/06/06 12:38:38;;;;;;;25.63;24.53;;;21.50;33.70;;;;;;4996072;28;20424;-88
2022/06/06 12:41:22;;;;;;;25.03;24.03;;;21.70;32.20;;;;;;4987030;28;20430;-88
2022/06/06 12:44:00;;;;;;;23.87;22.80;;;21.90;32.30;;;;;;5032877;28;20774;-88
2022/06/06 12:46:29;;;;;;;24.73;23.70;;;21.90;31.50;;;;;;5032916;28;20426;-88
2022/06/06 12:49:14;;;;;;;24.97;23.90;;;22.00;32.40;;;;;;5033095;28;20423;-88
2022/06/06 12:52:10;;;;;;;24.30;23.30;;;21.90;31.50;;;;;;5025345;28;20507;-88
2022/06/06 12:57:55;;;;;;;23.73;22.83;;;22.20;32.80;;;;;;5033611;28;20181;-89
2022/06/06 13:03:24;;;;;;;25.40;24.40;;;22.60;30.70;;;;;;5042837;28;20418;-88
2022/06/06 13:06:12;;;;;;;25.30;24.20;;;22.60;28.20;;;;;;5032400;28;20901;-89
2022/06/06 13:08:51;;;;;;;24.90;23.90;;;22.50;29.30;;;;;;5032722;28;20521;-89
2022/06/06 13:11:32;;;;;;;24.63;23.53;;;22.50;29.80;;;;;;5032763;28;20803;-89
2022/06/06 13:14:01;;;;;;;25.10;24.07;;;22.40;30.00;;;;;;5032531;28;20530;-88
2022/06/06 13:16:50;;;;;;;25.43;24.33;;;22.30;29.80;;;;;;5032210;28;20912;-89
2022/06/06 13:19:43;;;;;;;26.07;24.87;;;22.20;30.00;;;;;;5011923;28;20814;-89
2022/06/06 13:22:24;;;;;;;25.20;24.20;;;22.00;30.10;;;;;;5032225;28;20854;-89
2022/06/06 13:25:17;;;;;;;24.47;23.47;;;22.00;30.90;;;;;;5032531;28;20420;-89
2022/06/06 13:27:58;;;;;;;24.90;23.80;;;22.00;30.10;;;;;;5032423;28;20546;-89
2022/06/06 13:30:24;;;;;;;24.60;23.60;;;21.90;31.00;;;;;;5032360;28;20561;-89
2022/06/06 13:32:50;;;;;;;24.80;23.80;;;21.70;30.40;;;;;;5032387;28;20518;-89
2022/06/06 13:35:19;;;;;;;24.33;23.17;;;21.60;31.00;;;;;;5031865;28;20180;-89
2022/06/06 13:37:54;;;;;;;24.07;23.10;;;21.50;32.20;;;;;;5032272;28;20281;-89
2022/06/06 13:40:37;;;;;;;24.40;23.40;;;21.50;31.80;;;;;;5032067;28;20784;-89
2022/06/06 13:43:15;;;;;;;24.00;23.10;;;21.40;31.10;;;;;;5031896;28;20946;-88
2022/06/06 13:45:55;;;;;;;25.57;24.30;;;21.30;30.90;;;;;;5031651;28;20423;-89
2022/06/06 13:48:58;;;;;;;23.80;22.60;;;21.30;31.00;;;;;;5031983;28;20467;-89
2022/06/06 13:51:46;;;;;;;23.03;22.13;;;21.20;30.90;;;;;;5031918;28;20896;-89
2022/06/06 13:54:33;;;;;;;23.50;22.50;;;21.10;31.80;;;;;;5031812;28;20419;-89
2022/06/06 13:57:05;;;;;;;23.30;22.40;;;21.10;32.70;;;;;;5031504;28;20926;-89
2022/06/06 13:59:51;;;;;;;23.50;22.50;;;21.00;32.10;;;;;;5032955;28;20946;-89
2022/06/06 14:02:46;;;;;;;23.17;22.27;;;21.00;32.50;;;;;;5031627;28;20892;-89
2022/06/06 14:05:13;;;;;;;23.90;23.00;;;20.90;33.00;;;;;;5030503;28;20962;-89
2022/06/06 14:08:03;;;;;;;24.77;23.73;;;20.90;34.00;;;;;;5031496;28;20459;-89